sensor_id;sensor_type;location;lat;lon;timestamp;P1;durP1;ratioP1;P2;durP2;ratioP2
77598;SDS011;66758;52.078;5.070;2024-03-02T00:00:18;2.70;;;1.30;;
77598;SDS011;66758;52.078;5.070;2024-03-02T00:02:45;5.53;;;1.65;;
77598;SDS011;66758;52.078;5.070;2024-03-02T00:05:11;3.17;;;1.10;;
77598;SDS011;66758;52.078;5.070;2024-03-02T00:07:44;3.40;;;0.70;;
77598;SDS011;66758;52.078;5.070;2024-03-02T00:10:10;3.25;;;0.80;;
77598;SDS011;66758;52.078;5.070;2024-03-02T00:12:36;1.95;;;0.35;;
77598;SDS011;66758;52.078;5.070;2024-03-02T00:15:04;1.27;;;0.40;;
77598;SDS011;66758;52.078;5.070;2024-03-02T00:17:30;1.30;;;0.32;;
77598;SDS011;66758;52.078;5.070;2024-03-02T00:19:55;1.13;;;0.20;;
77598;SDS011;66758;52.078;5.070;2024-03-02T00:22:21;1.47;;;0.40;;
77598;SDS011;66758;52.078;5.070;2024-03-02T00:24:47;1.40;;;0.20;;
77598;SDS011;66758;52.078;5.070;2024-03-02T00:27:12;1.53;;;0.20;;
77598;SDS011;66758;52.078;5.070;2024-03-02T00:29:38;1.48;;;0.28;;
77598;SDS011;66758;52.078;5.070;2024-03-02T00:32:07;1.85;;;0.30;;
77598;SDS011;66758;52.078;5.070;2024-03-02T00:34:33;1.10;;;0.20;;
77598;SDS011;66758;52.078;5.070;2024-03-02T00:36:58;1.00;;;0.20;;
77598;SDS011;66758;52.078;5.070;2024-03-02T00:39:25;1.55;;;0.20;;
77598;SDS011;66758;52.078;5.070;2024-03-02T00:41:50;1.85;;;0.30;;
77598;SDS011;66758;52.078;5.070;2024-03-02T00:44:15;1.63;;;0.33;;
77598;SDS011;66758;52.078;5.070;2024-03-02T00:46:41;1.00;;;0.20;;
77598;SDS011;66758;52.078;5.070;2024-03-02T00:49:24;0.90;;;0.15;;
77598;SDS011;66758;52.078;5.070;2024-03-02T00:51:50;1.98;;;0.30;;
77598;SDS011;66758;52.078;5.070;2024-03-02T00:54:16;1.77;;;0.30;;
77598;SDS011;66758;52.078;5.070;2024-03-02T00:56:44;1.30;;;0.20;;
77598;SDS011;66758;52.078;5.070;2024-03-02T00:59:10;1.20;;;0.20;;
77598;SDS011;66758;52.078;5.070;2024-03-02T01:01:35;1.30;;;0.22;;
77598;SDS011;66758;52.078;5.070;2024-03-02T01:04:07;1.10;;;0.30;;
77598;SDS011;66758;52.078;5.070;2024-03-02T01:06:32;1.30;;;0.30;;
77598;SDS011;66758;52.078;5.070;2024-03-02T01:08:58;1.50;;;0.40;;
77598;SDS011;66758;52.078;5.070;2024-03-02T01:11:24;1.30;;;0.30;;
77598;SDS011;66758;52.078;5.070;2024-03-02T01:13:51;2.87;;;0.40;;
77598;SDS011;66758;52.078;5.070;2024-03-02T01:16:17;1.65;;;0.45;;
77598;SDS011;66758;52.078;5.070;2024-03-02T01:18:42;1.60;;;0.40;;
77598;SDS011;66758;52.078;5.070;2024-03-02T01:21:07;1.42;;;0.40;;
77598;SDS011;66758;52.078;5.070;2024-03-02T01:23:33;2.07;;;0.60;;
77598;SDS011;66758;52.078;5.070;2024-03-02T01:25:58;1.53;;;0.50;;
77598;SDS011;66758;52.078;5.070;2024-03-02T01:28:24;2.17;;;0.60;;
77598;SDS011;66758;52.078;5.070;2024-03-02T01:30:49;1.52;;;0.43;;
77598;SDS011;66758;52.078;5.070;2024-03-02T01:33:15;1.30;;;0.30;;
77598;SDS011;66758;52.078;5.070;2024-03-02T01:35:41;2.05;;;0.30;;
77598;SDS011;66758;52.078;5.070;2024-03-02T01:38:07;2.80;;;0.80;;
77598;SDS011;66758;52.078;5.070;2024-03-02T01:40:33;2.08;;;0.40;;
77598;SDS011;66758;52.078;5.070;2024-03-02T01:42:59;1.77;;;0.40;;
77598;SDS011;66758;52.078;5.070;2024-03-02T01:45:25;1.88;;;0.40;;
77598;SDS011;66758;52.078;5.070;2024-03-02T01:47:50;1.70;;;0.43;;
77598;SDS011;66758;52.078;5.070;2024-03-02T01:50:26;2.37;;;0.50;;
77598;SDS011;66758;52.078;5.070;2024-03-02T01:53:00;2.05;;;0.60;;
77598;SDS011;66758;52.078;5.070;2024-03-02T01:55:28;2.20;;;0.50;;
77598;SDS011;66758;52.078;5.070;2024-03-02T01:57:56;1.55;;;0.50;;
77598;SDS011;66758;52.078;5.070;2024-03-02T02:00:22;3.33;;;0.52;;
77598;SDS011;66758;52.078;5.070;2024-03-02T02:02:50;1.50;;;0.30;;
77598;SDS011;66758;52.078;5.070;2024-03-02T02:05:22;2.70;;;0.50;;
77598;SDS011;66758;52.078;5.070;2024-03-02T02:07:47;3.30;;;0.60;;
77598;SDS011;66758;52.078;5.070;2024-03-02T02:10:12;2.45;;;0.55;;
77598;SDS011;66758;52.078;5.070;2024-03-02T02:12:38;2.40;;;0.47;;
77598;SDS011;66758;52.078;5.070;2024-03-02T02:15:25;1.93;;;0.50;;
77598;SDS011;66758;52.078;5.070;2024-03-02T02:17:49;1.70;;;0.70;;
77598;SDS011;66758;52.078;5.070;2024-03-02T02:20:15;1.63;;;0.30;;
77598;SDS011;66758;52.078;5.070;2024-03-02T02:22:43;3.07;;;0.60;;
77598;SDS011;66758;52.078;5.070;2024-03-02T02:25:17;1.50;;;0.40;;
77598;SDS011;66758;52.078;5.070;2024-03-02T02:27:42;1.63;;;0.30;;
77598;SDS011;66758;52.078;5.070;2024-03-02T02:30:08;2.20;;;0.50;;
77598;SDS011;66758;52.078;5.070;2024-03-02T02:32:34;2.10;;;0.68;;
77598;SDS011;66758;52.078;5.070;2024-03-02T02:34:59;2.70;;;0.77;;
77598;SDS011;66758;52.078;5.070;2024-03-02T02:37:24;2.00;;;0.70;;
77598;SDS011;66758;52.078;5.070;2024-03-02T02:39:56;2.17;;;0.67;;
77598;SDS011;66758;52.078;5.070;2024-03-02T02:42:21;2.90;;;0.80;;
77598;SDS011;66758;52.078;5.070;2024-03-02T02:44:47;2.80;;;0.90;;
77598;SDS011;66758;52.078;5.070;2024-03-02T02:47:12;1.83;;;0.67;;
77598;SDS011;66758;52.078;5.070;2024-03-02T02:49:38;2.10;;;0.70;;
77598;SDS011;66758;52.078;5.070;2024-03-02T02:52:03;2.33;;;0.60;;
77598;SDS011;66758;52.078;5.070;2024-03-02T02:54:28;2.00;;;0.63;;
77598;SDS011;66758;52.078;5.070;2024-03-02T02:56:54;2.17;;;0.77;;
77598;SDS011;66758;52.078;5.070;2024-03-02T02:59:19;1.93;;;0.67;;
77598;SDS011;66758;52.078;5.070;2024-03-02T03:01:44;2.03;;;0.70;;
77598;SDS011;66758;52.078;5.070;2024-03-02T03:04:10;5.00;;;0.70;;
77598;SDS011;66758;52.078;5.070;2024-03-02T03:06:35;2.03;;;0.50;;
77598;SDS011;66758;52.078;5.070;2024-03-02T03:09:00;2.93;;;0.80;;
77598;SDS011;66758;52.078;5.070;2024-03-02T03:11:26;4.20;;;0.65;;
77598;SDS011;66758;52.078;5.070;2024-03-02T03:13:51;2.23;;;0.50;;
77598;SDS011;66758;52.078;5.070;2024-03-02T03:16:18;2.00;;;0.50;;
77598;SDS011;66758;52.078;5.070;2024-03-02T03:18:43;4.23;;;0.73;;
77598;SDS011;66758;52.078;5.070;2024-03-02T03:21:08;3.40;;;0.60;;
77598;SDS011;66758;52.078;5.070;2024-03-02T03:23:33;1.50;;;0.40;;
77598;SDS011;66758;52.078;5.070;2024-03-02T03:25:59;1.83;;;0.40;;
77598;SDS011;66758;52.078;5.070;2024-03-02T03:28:24;2.20;;;0.40;;
77598;SDS011;66758;52.078;5.070;2024-03-02T03:30:49;2.30;;;0.50;;
77598;SDS011;66758;52.078;5.070;2024-03-02T03:33:15;1.90;;;0.30;;
77598;SDS011;66758;52.078;5.070;2024-03-02T03:35:40;1.70;;;0.40;;
77598;SDS011;66758;52.078;5.070;2024-03-02T03:38:05;4.40;;;0.80;;
77598;SDS011;66758;52.078;5.070;2024-03-02T03:40:31;1.53;;;0.20;;
77598;SDS011;66758;52.078;5.070;2024-03-02T03:42:57;1.88;;;0.32;;
77598;SDS011;66758;52.078;5.070;2024-03-02T03:45:22;2.53;;;0.50;;
77598;SDS011;66758;52.078;5.070;2024-03-02T03:47:50;3.58;;;0.47;;
77598;SDS011;66758;52.078;5.070;2024-03-02T03:50:15;2.67;;;0.47;;
77598;SDS011;66758;52.078;5.070;2024-03-02T03:52:40;1.70;;;0.40;;
77598;SDS011;66758;52.078;5.070;2024-03-02T03:55:06;2.03;;;0.50;;
77598;SDS011;66758;52.078;5.070;2024-03-02T03:57:31;2.07;;;0.33;;
77598;SDS011;66758;52.078;5.070;2024-03-02T03:59:56;1.90;;;0.40;;
77598;SDS011;66758;52.078;5.070;2024-03-02T04:02:22;1.63;;;0.50;;
77598;SDS011;66758;52.078;5.070;2024-03-02T04:04:47;2.40;;;0.50;;
77598;SDS011;66758;52.078;5.070;2024-03-02T04:07:12;1.90;;;0.40;;
77598;SDS011;66758;52.078;5.070;2024-03-02T04:09:37;1.43;;;0.43;;
77598;SDS011;66758;52.078;5.070;2024-03-02T04:12:03;1.50;;;0.47;;
77598;SDS011;66758;52.078;5.070;2024-03-02T04:14:29;2.28;;;0.55;;
77598;SDS011;66758;52.078;5.070;2024-03-02T04:16:54;3.77;;;0.70;;
77598;SDS011;66758;52.078;5.070;2024-03-02T04:19:19;2.40;;;0.50;;
77598;SDS011;66758;52.078;5.070;2024-03-02T04:21:45;2.50;;;0.50;;
77598;SDS011;66758;52.078;5.070;2024-03-02T04:24:10;3.27;;;0.53;;
77598;SDS011;66758;52.078;5.070;2024-03-02T04:26:35;1.83;;;0.60;;
77598;SDS011;66758;52.078;5.070;2024-03-02T04:29:01;1.50;;;0.30;;
77598;SDS011;66758;52.078;5.070;2024-03-02T04:31:27;1.90;;;0.43;;
77598;SDS011;66758;52.078;5.070;2024-03-02T04:33:52;1.67;;;0.43;;
77598;SDS011;66758;52.078;5.070;2024-03-02T04:36:19;2.15;;;0.50;;
77598;SDS011;66758;52.078;5.070;2024-03-02T04:38:44;3.73;;;0.63;;
77598;SDS011;66758;52.078;5.070;2024-03-02T04:41:09;2.90;;;0.57;;
77598;SDS011;66758;52.078;5.070;2024-03-02T04:43:35;2.00;;;0.40;;
77598;SDS011;66758;52.078;5.070;2024-03-02T04:46:00;1.57;;;0.30;;
77598;SDS011;66758;52.078;5.070;2024-03-02T04:48:26;1.70;;;0.40;;
77598;SDS011;66758;52.078;5.070;2024-03-02T04:50:52;1.33;;;0.40;;
77598;SDS011;66758;52.078;5.070;2024-03-02T04:53:18;2.97;;;0.40;;
77598;SDS011;66758;52.078;5.070;2024-03-02T04:55:43;1.50;;;0.30;;
77598;SDS011;66758;52.078;5.070;2024-03-02T04:58:10;1.37;;;0.40;;
77598;SDS011;66758;52.078;5.070;2024-03-02T05:00:35;1.67;;;0.22;;
77598;SDS011;66758;52.078;5.070;2024-03-02T05:03:01;1.60;;;0.50;;
77598;SDS011;66758;52.078;5.070;2024-03-02T05:05:26;2.00;;;0.55;;
77598;SDS011;66758;52.078;5.070;2024-03-02T05:07:54;2.00;;;0.43;;
77598;SDS011;66758;52.078;5.070;2024-03-02T05:10:19;3.15;;;0.60;;
77598;SDS011;66758;52.078;5.070;2024-03-02T05:12:45;2.43;;;0.50;;
77598;SDS011;66758;52.078;5.070;2024-03-02T05:15:10;1.60;;;0.60;;
77598;SDS011;66758;52.078;5.070;2024-03-02T05:17:36;3.42;;;0.70;;
77598;SDS011;66758;52.078;5.070;2024-03-02T05:20:02;3.43;;;0.67;;
77598;SDS011;66758;52.078;5.070;2024-03-02T05:22:28;2.83;;;0.50;;
77598;SDS011;66758;52.078;5.070;2024-03-02T05:24:54;2.57;;;0.50;;
77598;SDS011;66758;52.078;5.070;2024-03-02T05:27:19;1.67;;;0.50;;
77598;SDS011;66758;52.078;5.070;2024-03-02T05:29:44;5.83;;;1.00;;
77598;SDS011;66758;52.078;5.070;2024-03-02T05:32:10;2.58;;;0.30;;
77598;SDS011;66758;52.078;5.070;2024-03-02T05:34:35;1.63;;;0.47;;
77598;SDS011;66758;52.078;5.070;2024-03-02T05:37:01;3.10;;;0.70;;
77598;SDS011;66758;52.078;5.070;2024-03-02T05:39:26;2.53;;;0.40;;
77598;SDS011;66758;52.078;5.070;2024-03-02T05:41:52;1.57;;;0.30;;
77598;SDS011;66758;52.078;5.070;2024-03-02T05:44:18;1.80;;;0.40;;
77598;SDS011;66758;52.078;5.070;2024-03-02T05:46:44;2.17;;;0.47;;
77598;SDS011;66758;52.078;5.070;2024-03-02T05:49:10;3.27;;;0.57;;
77598;SDS011;66758;52.078;5.070;2024-03-02T05:51:37;3.88;;;0.50;;
77598;SDS011;66758;52.078;5.070;2024-03-02T05:54:03;3.63;;;0.55;;
77598;SDS011;66758;52.078;5.070;2024-03-02T05:56:28;3.63;;;0.63;;
77598;SDS011;66758;52.078;5.070;2024-03-02T05:58:53;4.13;;;0.60;;
77598;SDS011;66758;52.078;5.070;2024-03-02T06:01:40;2.15;;;0.32;;
77598;SDS011;66758;52.078;5.070;2024-03-02T06:04:05;1.60;;;0.60;;
77598;SDS011;66758;52.078;5.070;2024-03-02T06:06:31;4.50;;;0.90;;
77598;SDS011;66758;52.078;5.070;2024-03-02T06:09:00;2.42;;;0.57;;
77598;SDS011;66758;52.078;5.070;2024-03-02T06:11:25;4.05;;;0.55;;
77598;SDS011;66758;52.078;5.070;2024-03-02T06:13:51;2.70;;;0.30;;
77598;SDS011;66758;52.078;5.070;2024-03-02T06:16:16;2.88;;;0.50;;
77598;SDS011;66758;52.078;5.070;2024-03-02T06:18:42;1.77;;;0.30;;
77598;SDS011;66758;52.078;5.070;2024-03-02T06:21:07;1.23;;;0.30;;
77598;SDS011;66758;52.078;5.070;2024-03-02T06:23:33;1.53;;;0.43;;
77598;SDS011;66758;52.078;5.070;2024-03-02T06:25:58;4.00;;;0.45;;
77598;SDS011;66758;52.078;5.070;2024-03-02T06:28:23;3.40;;;0.40;;
77598;SDS011;66758;52.078;5.070;2024-03-02T06:30:49;3.90;;;0.60;;
77598;SDS011;66758;52.078;5.070;2024-03-02T06:33:14;2.47;;;0.50;;
77598;SDS011;66758;52.078;5.070;2024-03-02T06:35:39;4.47;;;0.47;;
77598;SDS011;66758;52.078;5.070;2024-03-02T06:38:06;3.58;;;0.52;;
77598;SDS011;66758;52.078;5.070;2024-03-02T06:40:31;1.50;;;0.40;;
77598;SDS011;66758;52.078;5.070;2024-03-02T06:42:58;2.80;;;0.52;;
77598;SDS011;66758;52.078;5.070;2024-03-02T06:45:23;1.97;;;0.50;;
77598;SDS011;66758;52.078;5.070;2024-03-02T06:47:49;4.40;;;0.63;;
77598;SDS011;66758;52.078;5.070;2024-03-02T06:50:14;4.13;;;0.53;;
77598;SDS011;66758;52.078;5.070;2024-03-02T06:52:39;3.00;;;0.63;;
77598;SDS011;66758;52.078;5.070;2024-03-02T06:55:05;1.57;;;0.40;;
77598;SDS011;66758;52.078;5.070;2024-03-02T06:57:30;1.93;;;0.30;;
77598;SDS011;66758;52.078;5.070;2024-03-02T06:59:56;2.20;;;0.50;;
77598;SDS011;66758;52.078;5.070;2024-03-02T07:02:26;3.87;;;0.53;;
77598;SDS011;66758;52.078;5.070;2024-03-02T07:04:55;4.38;;;0.90;;
77598;SDS011;66758;52.078;5.070;2024-03-02T07:07:20;5.55;;;0.50;;
77598;SDS011;66758;52.078;5.070;2024-03-02T07:09:46;2.00;;;0.50;;
77598;SDS011;66758;52.078;5.070;2024-03-02T07:12:11;2.22;;;0.90;;
77598;SDS011;66758;52.078;5.070;2024-03-02T07:14:36;2.07;;;0.50;;
77598;SDS011;66758;52.078;5.070;2024-03-02T07:17:34;3.20;;;0.40;;
77598;SDS011;66758;52.078;5.070;2024-03-02T07:20:00;2.30;;;0.50;;
77598;SDS011;66758;52.078;5.070;2024-03-02T07:22:26;2.17;;;0.40;;
77598;SDS011;66758;52.078;5.070;2024-03-02T07:24:52;2.57;;;0.60;;
77598;SDS011;66758;52.078;5.070;2024-03-02T07:27:17;4.60;;;0.80;;
77598;SDS011;66758;52.078;5.070;2024-03-02T07:29:42;2.43;;;0.50;;
77598;SDS011;66758;52.078;5.070;2024-03-02T07:32:08;1.27;;;0.30;;
77598;SDS011;66758;52.078;5.070;2024-03-02T07:34:33;2.70;;;0.40;;
77598;SDS011;66758;52.078;5.070;2024-03-02T07:36:59;5.03;;;0.60;;
77598;SDS011;66758;52.078;5.070;2024-03-02T07:39:24;2.92;;;0.50;;
77598;SDS011;66758;52.078;5.070;2024-03-02T07:41:50;3.30;;;0.60;;
77598;SDS011;66758;52.078;5.070;2024-03-02T07:44:17;3.47;;;0.40;;
77598;SDS011;66758;52.078;5.070;2024-03-02T07:46:44;3.10;;;0.60;;
77598;SDS011;66758;52.078;5.070;2024-03-02T07:49:11;1.77;;;0.50;;
77598;SDS011;66758;52.078;5.070;2024-03-02T07:51:36;1.65;;;0.35;;
77598;SDS011;66758;52.078;5.070;2024-03-02T07:54:05;5.13;;;0.60;;
77598;SDS011;66758;52.078;5.070;2024-03-02T07:56:30;5.40;;;0.60;;
77598;SDS011;66758;52.078;5.070;2024-03-02T07:58:56;3.90;;;0.60;;
77598;SDS011;66758;52.078;5.070;2024-03-02T08:01:26;2.00;;;0.40;;
77598;SDS011;66758;52.078;5.070;2024-03-02T08:03:51;2.23;;;0.70;;
77598;SDS011;66758;52.078;5.070;2024-03-02T08:06:17;3.78;;;0.40;;
77598;SDS011;66758;52.078;5.070;2024-03-02T08:08:45;3.95;;;0.47;;
77598;SDS011;66758;52.078;5.070;2024-03-02T08:11:11;2.53;;;0.40;;
77598;SDS011;66758;52.078;5.070;2024-03-02T08:13:36;3.17;;;0.57;;
77598;SDS011;66758;52.078;5.070;2024-03-02T08:16:01;3.00;;;0.57;;
77598;SDS011;66758;52.078;5.070;2024-03-02T08:18:34;4.30;;;0.57;;
77598;SDS011;66758;52.078;5.070;2024-03-02T08:20:59;3.38;;;0.70;;
77598;SDS011;66758;52.078;5.070;2024-03-02T08:23:25;3.50;;;0.50;;
77598;SDS011;66758;52.078;5.070;2024-03-02T08:25:50;4.40;;;0.45;;
77598;SDS011;66758;52.078;5.070;2024-03-02T08:28:15;2.07;;;0.60;;
77598;SDS011;66758;52.078;5.070;2024-03-02T08:30:41;2.83;;;0.50;;
77598;SDS011;66758;52.078;5.070;2024-03-02T08:33:06;3.40;;;0.50;;
77598;SDS011;66758;52.078;5.070;2024-03-02T08:35:31;3.23;;;0.40;;
77598;SDS011;66758;52.078;5.070;2024-03-02T08:38:01;1.90;;;0.35;;
77598;SDS011;66758;52.078;5.070;2024-03-02T08:40:27;3.13;;;0.52;;
77598;SDS011;66758;52.078;5.070;2024-03-02T08:42:52;2.67;;;0.30;;
77598;SDS011;66758;52.078;5.070;2024-03-02T08:45:17;3.97;;;0.50;;
77598;SDS011;66758;52.078;5.070;2024-03-02T08:47:45;3.67;;;0.70;;
77598;SDS011;66758;52.078;5.070;2024-03-02T08:50:10;3.30;;;0.50;;
77598;SDS011;66758;52.078;5.070;2024-03-02T08:52:35;3.33;;;0.63;;
77598;SDS011;66758;52.078;5.070;2024-03-02T08:55:01;3.37;;;0.40;;
77598;SDS011;66758;52.078;5.070;2024-03-02T08:57:27;3.20;;;0.50;;
77598;SDS011;66758;52.078;5.070;2024-03-02T08:59:52;2.87;;;0.50;;
77598;SDS011;66758;52.078;5.070;2024-03-02T09:02:18;3.90;;;0.40;;
77598;SDS011;66758;52.078;5.070;2024-03-02T09:04:46;3.53;;;0.47;;
77598;SDS011;66758;52.078;5.070;2024-03-02T09:07:11;3.83;;;0.60;;
77598;SDS011;66758;52.078;5.070;2024-03-02T09:09:37;3.40;;;0.52;;
77598;SDS011;66758;52.078;5.070;2024-03-02T09:12:04;3.47;;;0.43;;
77598;SDS011;66758;52.078;5.070;2024-03-02T09:14:29;3.38;;;0.50;;
77598;SDS011;66758;52.078;5.070;2024-03-02T09:16:55;3.30;;;0.60;;
77598;SDS011;66758;52.078;5.070;2024-03-02T09:19:20;3.30;;;0.43;;
77598;SDS011;66758;52.078;5.070;2024-03-02T09:21:45;5.70;;;0.70;;
77598;SDS011;66758;52.078;5.070;2024-03-02T09:24:11;4.67;;;1.80;;
77598;SDS011;66758;52.078;5.070;2024-03-02T09:26:36;4.93;;;0.60;;
77598;SDS011;66758;52.078;5.070;2024-03-02T09:29:01;6.03;;;1.00;;
77598;SDS011;66758;52.078;5.070;2024-03-02T09:31:27;5.03;;;0.60;;
77598;SDS011;66758;52.078;5.070;2024-03-02T09:33:52;5.33;;;0.70;;
77598;SDS011;66758;52.078;5.070;2024-03-02T09:36:21;5.77;;;0.50;;
77598;SDS011;66758;52.078;5.070;2024-03-02T09:38:47;3.23;;;0.50;;
77598;SDS011;66758;52.078;5.070;2024-03-02T09:41:12;3.20;;;0.63;;
77598;SDS011;66758;52.078;5.070;2024-03-02T09:43:38;6.60;;;0.70;;
77598;SDS011;66758;52.078;5.070;2024-03-02T09:46:03;3.77;;;0.67;;
77598;SDS011;66758;52.078;5.070;2024-03-02T09:48:29;5.03;;;1.10;;
77598;SDS011;66758;52.078;5.070;2024-03-02T09:50:55;3.53;;;0.73;;
77598;SDS011;66758;52.078;5.070;2024-03-02T09:53:20;7.40;;;0.90;;
77598;SDS011;66758;52.078;5.070;2024-03-02T09:55:47;4.97;;;1.30;;
77598;SDS011;66758;52.078;5.070;2024-03-02T09:58:12;6.50;;;1.00;;
77598;SDS011;66758;52.078;5.070;2024-03-02T10:00:40;6.93;;;1.00;;
77598;SDS011;66758;52.078;5.070;2024-03-02T10:03:19;5.85;;;0.80;;
77598;SDS011;66758;52.078;5.070;2024-03-02T10:05:47;3.33;;;0.68;;
77598;SDS011;66758;52.078;5.070;2024-03-02T10:08:12;4.57;;;0.80;;
77598;SDS011;66758;52.078;5.070;2024-03-02T10:10:42;3.60;;;0.53;;
77598;SDS011;66758;52.078;5.070;2024-03-02T10:13:09;6.57;;;0.95;;
77598;SDS011;66758;52.078;5.070;2024-03-02T10:15:34;4.70;;;0.70;;
77598;SDS011;66758;52.078;5.070;2024-03-02T10:18:02;5.35;;;0.93;;
77598;SDS011;66758;52.078;5.070;2024-03-02T10:20:28;3.53;;;0.70;;
77598;SDS011;66758;52.078;5.070;2024-03-02T10:22:55;4.82;;;0.90;;
77598;SDS011;66758;52.078;5.070;2024-03-02T10:25:30;5.13;;;0.83;;
77598;SDS011;66758;52.078;5.070;2024-03-02T10:27:59;6.97;;;1.00;;
77598;SDS011;66758;52.078;5.070;2024-03-02T10:30:25;4.63;;;0.52;;
77598;SDS011;66758;52.078;5.070;2024-03-02T10:32:52;4.57;;;0.90;;
77598;SDS011;66758;52.078;5.070;2024-03-02T10:35:18;4.88;;;1.00;;
77598;SDS011;66758;52.078;5.070;2024-03-02T10:37:44;3.42;;;0.70;;
77598;SDS011;66758;52.078;5.070;2024-03-02T10:40:10;13.97;;;0.97;;
77598;SDS011;66758;52.078;5.070;2024-03-02T10:42:36;4.72;;;1.15;;
77598;SDS011;66758;52.078;5.070;2024-03-02T10:45:02;3.25;;;1.05;;
77598;SDS011;66758;52.078;5.070;2024-03-02T10:47:28;4.60;;;0.70;;
77598;SDS011;66758;52.078;5.070;2024-03-02T10:49:54;4.15;;;0.77;;
77598;SDS011;66758;52.078;5.070;2024-03-02T10:52:22;4.78;;;0.98;;
77598;SDS011;66758;52.078;5.070;2024-03-02T10:54:48;4.00;;;0.55;;
77598;SDS011;66758;52.078;5.070;2024-03-02T10:57:13;3.10;;;0.60;;
77598;SDS011;66758;52.078;5.070;2024-03-02T11:26:41;3.58;;;0.77;;
77598;SDS011;66758;52.078;5.070;2024-03-02T11:29:06;3.72;;;1.08;;
77598;SDS011;66758;52.078;5.070;2024-03-02T11:34:31;2.60;;;0.70;;
77598;SDS011;66758;52.078;5.070;2024-03-02T11:36:56;5.10;;;0.90;;
77598;SDS011;66758;52.078;5.070;2024-03-02T11:39:22;5.13;;;0.70;;
77598;SDS011;66758;52.078;5.070;2024-03-02T11:41:47;3.40;;;0.90;;
77598;SDS011;66758;52.078;5.070;2024-03-02T11:44:14;3.30;;;0.80;;
77598;SDS011;66758;52.078;5.070;2024-03-02T11:47:14;4.55;;;1.00;;
77598;SDS011;66758;52.078;5.070;2024-03-02T11:49:50;2.90;;;0.73;;
77598;SDS011;66758;52.078;5.070;2024-03-02T11:52:19;3.22;;;0.98;;
77598;SDS011;66758;52.078;5.070;2024-03-02T11:54:46;4.63;;;1.25;;
77598;SDS011;66758;52.078;5.070;2024-03-02T11:57:23;3.90;;;0.60;;
77598;SDS011;66758;52.078;5.070;2024-03-02T11:59:51;2.85;;;0.70;;
77598;SDS011;66758;52.078;5.070;2024-03-02T12:02:17;3.20;;;0.80;;
77598;SDS011;66758;52.078;5.070;2024-03-02T12:04:43;5.47;;;0.70;;
77598;SDS011;66758;52.078;5.070;2024-03-02T12:07:26;2.45;;;0.75;;
77598;SDS011;66758;52.078;5.070;2024-03-02T12:10:07;3.50;;;0.97;;
77598;SDS011;66758;52.078;5.070;2024-03-02T12:12:33;3.20;;;1.10;;
77598;SDS011;66758;52.078;5.070;2024-03-02T12:14:59;3.17;;;0.70;;
77598;SDS011;66758;52.078;5.070;2024-03-02T12:17:25;3.75;;;0.90;;
77598;SDS011;66758;52.078;5.070;2024-03-02T12:19:51;2.50;;;0.47;;
77598;SDS011;66758;52.078;5.070;2024-03-02T12:22:16;4.10;;;0.73;;
77598;SDS011;66758;52.078;5.070;2024-03-02T12:24:43;2.80;;;0.60;;
77598;SDS011;66758;52.078;5.070;2024-03-02T12:27:12;2.65;;;0.70;;
77598;SDS011;66758;52.078;5.070;2024-03-02T12:29:37;2.73;;;0.40;;
77598;SDS011;66758;52.078;5.070;2024-03-02T12:32:03;4.43;;;0.75;;
77598;SDS011;66758;52.078;5.070;2024-03-02T12:34:46;4.13;;;0.80;;
77598;SDS011;66758;52.078;5.070;2024-03-02T12:37:12;2.57;;;0.50;;
77598;SDS011;66758;52.078;5.070;2024-03-02T12:39:38;5.68;;;1.00;;
77598;SDS011;66758;52.078;5.070;2024-03-02T12:42:04;4.30;;;1.23;;
77598;SDS011;66758;52.078;5.070;2024-03-02T12:44:29;4.55;;;1.13;;
77598;SDS011;66758;52.078;5.070;2024-03-02T12:46:54;4.53;;;0.60;;
77598;SDS011;66758;52.078;5.070;2024-03-02T12:49:21;4.13;;;0.90;;
77598;SDS011;66758;52.078;5.070;2024-03-02T12:51:47;4.97;;;0.77;;
77598;SDS011;66758;52.078;5.070;2024-03-02T12:54:16;4.15;;;0.82;;
77598;SDS011;66758;52.078;5.070;2024-03-02T12:56:43;5.27;;;0.70;;
77598;SDS011;66758;52.078;5.070;2024-03-02T12:59:17;3.90;;;0.80;;
77598;SDS011;66758;52.078;5.070;2024-03-02T13:01:52;6.18;;;1.10;;
77598;SDS011;66758;52.078;5.070;2024-03-02T13:04:25;4.75;;;0.80;;
77598;SDS011;66758;52.078;5.070;2024-03-02T13:06:52;5.10;;;0.60;;
77598;SDS011;66758;52.078;5.070;2024-03-02T13:09:17;4.80;;;0.68;;
77598;SDS011;66758;52.078;5.070;2024-03-02T13:11:42;3.77;;;0.80;;
77598;SDS011;66758;52.078;5.070;2024-03-02T13:14:10;4.55;;;0.70;;
77598;SDS011;66758;52.078;5.070;2024-03-02T13:16:42;4.37;;;0.83;;
77598;SDS011;66758;52.078;5.070;2024-03-02T13:19:13;3.38;;;0.60;;
77598;SDS011;66758;52.078;5.070;2024-03-02T13:21:39;3.22;;;0.70;;
77598;SDS011;66758;52.078;5.070;2024-03-02T13:24:04;5.73;;;0.93;;
77598;SDS011;66758;52.078;5.070;2024-03-02T13:26:31;2.80;;;0.70;;
77598;SDS011;66758;52.078;5.070;2024-03-02T13:28:58;3.03;;;0.60;;
77598;SDS011;66758;52.078;5.070;2024-03-02T13:31:23;2.67;;;0.65;;
77598;SDS011;66758;52.078;5.070;2024-03-02T13:33:49;4.33;;;0.80;;
77598;SDS011;66758;52.078;5.070;2024-03-02T13:36:14;3.42;;;0.65;;
77598;SDS011;66758;52.078;5.070;2024-03-02T13:38:41;5.03;;;0.73;;
77598;SDS011;66758;52.078;5.070;2024-03-02T13:41:07;6.07;;;0.90;;
77598;SDS011;66758;52.078;5.070;2024-03-02T13:43:32;3.40;;;0.70;;
77598;SDS011;66758;52.078;5.070;2024-03-02T13:46:04;7.67;;;0.70;;
77598;SDS011;66758;52.078;5.070;2024-03-02T13:48:32;2.70;;;0.70;;
77598;SDS011;66758;52.078;5.070;2024-03-02T13:50:58;5.03;;;0.88;;
77598;SDS011;66758;52.078;5.070;2024-03-02T13:53:23;2.90;;;0.63;;
77598;SDS011;66758;52.078;5.070;2024-03-02T13:55:49;5.25;;;0.70;;
77598;SDS011;66758;52.078;5.070;2024-03-02T13:58:15;4.37;;;0.97;;
77598;SDS011;66758;52.078;5.070;2024-03-02T14:00:43;6.28;;;0.90;;
77598;SDS011;66758;52.078;5.070;2024-03-02T14:03:09;4.32;;;0.88;;
77598;SDS011;66758;52.078;5.070;2024-03-02T14:05:35;5.30;;;0.80;;
77598;SDS011;66758;52.078;5.070;2024-03-02T14:08:01;4.55;;;0.80;;
77598;SDS011;66758;52.078;5.070;2024-03-02T14:10:36;4.40;;;0.63;;
77598;SDS011;66758;52.078;5.070;2024-03-02T14:13:04;3.55;;;0.73;;
77598;SDS011;66758;52.078;5.070;2024-03-02T14:15:30;4.78;;;0.98;;
77598;SDS011;66758;52.078;5.070;2024-03-02T14:17:56;4.83;;;1.00;;
77598;SDS011;66758;52.078;5.070;2024-03-02T14:20:21;5.83;;;0.90;;
77598;SDS011;66758;52.078;5.070;2024-03-02T14:22:47;3.80;;;1.13;;
77598;SDS011;66758;52.078;5.070;2024-03-02T14:25:13;3.40;;;1.13;;
77598;SDS011;66758;52.078;5.070;2024-03-02T14:27:38;3.63;;;0.90;;
77598;SDS011;66758;52.078;5.070;2024-03-02T14:30:03;4.67;;;0.93;;
77598;SDS011;66758;52.078;5.070;2024-03-02T14:32:30;3.13;;;0.90;;
77598;SDS011;66758;52.078;5.070;2024-03-02T14:34:55;4.67;;;1.03;;
77598;SDS011;66758;52.078;5.070;2024-03-02T14:37:21;5.87;;;1.13;;
77598;SDS011;66758;52.078;5.070;2024-03-02T14:39:46;4.63;;;0.93;;
77598;SDS011;66758;52.078;5.070;2024-03-02T14:42:18;4.95;;;0.95;;
77598;SDS011;66758;52.078;5.070;2024-03-02T14:44:43;3.95;;;1.02;;
77598;SDS011;66758;52.078;5.070;2024-03-02T14:47:08;3.30;;;1.00;;
77598;SDS011;66758;52.078;5.070;2024-03-02T14:49:34;2.50;;;1.00;;
77598;SDS011;66758;52.078;5.070;2024-03-02T14:52:02;5.07;;;1.20;;
77598;SDS011;66758;52.078;5.070;2024-03-02T14:54:27;5.90;;;1.30;;
77598;SDS011;66758;52.078;5.070;2024-03-02T14:56:56;4.90;;;1.10;;
77598;SDS011;66758;52.078;5.070;2024-03-02T14:59:22;4.53;;;0.93;;
77598;SDS011;66758;52.078;5.070;2024-03-02T15:01:47;2.73;;;0.80;;
77598;SDS011;66758;52.078;5.070;2024-03-02T15:04:13;3.75;;;0.70;;
77598;SDS011;66758;52.078;5.070;2024-03-02T15:06:41;5.37;;;0.70;;
77598;SDS011;66758;52.078;5.070;2024-03-02T15:09:06;8.05;;;1.20;;
77598;SDS011;66758;52.078;5.070;2024-03-02T15:11:32;3.57;;;0.93;;
77598;SDS011;66758;52.078;5.070;2024-03-02T15:13:57;3.33;;;0.90;;